Time;durP1;ratioP1;P1;durP2;ratioP2;P2;SDS_P1;SDS_P2;PMS_P1;PMS_P2;Temp;Humidity;BMP_temperature;BMP_pressure;BME280_temperature;BME280_humidity;BME280_pressure;Samples;Min_cycle;Max_cycle;Signal;HPM_P1;HPM_P2
2023/12/03 00:00:15;;;;;;;7.70;5.50;;;;;;;-2.80;100.00;95968.03;7419040;19;20458;-95
2023/12/03 00:02:43;;;;;;;5.87;5.27;;;;;;;-2.53;100.00;96017.16;7427065;19;20442;-94
2023/12/03 00:14:04;;;;;;;7.20;6.33;;;;;;;-3.25;100.00;95909.50;7424602;19;20456;-95
2023/12/03 00:16:31;;;;;;;7.40;5.83;;;;;;;-3.19;100.00;95909.63;7426718;19;20395;-94
2023/12/03 00:18:59;;;;;;;4.27;3.87;;;;;;;-3.40;100.00;95869.88;7425224;19;20389;-94
2023/12/03 00:21:26;;;;;;;4.60;4.00;;;;;;;-3.10;100.00;95929.63;7421675;19;20433;-94
2023/12/03 00:24:13;;;;;;;6.10;5.57;;;;;;;-2.49;100.00;96020.06;7413810;19;20460;31
2023/12/03 00:26:41;;;;;;;8.50;5.50;;;;;;;-3.65;100.00;95867.50;7422908;19;20904;-94
2023/12/03 00:29:08;;;;;;;6.20;5.60;;;;;;;-3.23;100.00;95911.84;7415823;19;20408;-95
2023/12/03 00:31:38;;;;;;;8.80;5.83;;;;;;;-2.43;100.00;96026.91;7415224;19;20414;-95
2023/12/03 00:34:17;;;;;;;5.57;5.07;;;;;;;-3.29;100.00;95898.13;7420686;19;20693;-96
2023/12/03 00:36:48;;;;;;;5.40;5.00;;;;;;;-3.06;100.00;95935.84;7420630;19;20385;-95
2023/12/03 00:39:39;;;;;;;7.97;5.97;;;;;;;-2.53;100.00;96018.94;7426407;19;20457;-96
2023/12/03 00:42:14;;;;;;;8.43;6.50;;;;;;;-2.66;100.00;96004.53;7416477;19;20452;-93
2023/12/03 00:44:56;;;;;;;6.00;5.00;;;;;;;-3.11;100.00;95930.63;7425609;19;20425;-94
2023/12/03 00:47:25;;;;;;;6.60;4.30;;;;;;;-3.44;100.00;95904.66;7428175;19;20366;-95
2023/12/03 00:49:53;;;;;;;5.87;5.10;;;;;;;-2.53;100.00;96030.00;7425049;19;20374;-96
2023/12/03 00:52:20;;;;;;;6.70;6.00;;;;;;;-3.33;100.00;95924.44;7426419;19;20425;-96
2023/12/03 00:54:48;;;;;;;7.23;5.60;;;;;;;-3.07;100.00;95954.81;7421007;19;20424;-96
2023/12/03 00:57:15;;;;;;;7.83;5.63;;;;;;;-2.89;100.00;95971.13;7419054;19;20370;-95
2023/12/03 01:02:19;;;;;;;6.17;5.53;;;;;;;-2.67;100.00;96006.31;7423902;19;20422;-95
2023/12/03 01:04:46;;;;;;;7.10;5.23;;;;;;;-2.74;100.00;95989.44;7425697;19;20370;-94
2023/12/03 01:07:21;;;;;;;5.43;4.17;;;;;;;-2.84;100.00;95977.19;7427207;19;20378;-95
2023/12/03 01:09:49;;;;;;;8.07;5.93;;;;;;;-2.24;100.00;96074.59;7425894;19;20407;-94
2023/12/03 01:12:21;;;;;;;4.97;3.20;;;;;;;-3.13;100.00;95942.88;7423208;19;20425;-95
2023/12/03 01:20:31;;;;;;;6.37;5.70;;;;;;;-3.44;100.00;95913.16;7415081;19;20489;-96
2023/12/03 01:25:45;;;;;;;4.73;3.80;;;;;;;-2.92;100.00;95982.63;7428087;19;20385;-94
2023/12/03 01:28:21;;;;;;;5.30;4.40;;;;;;;-2.96;100.00;95990.00;7426324;19;20389;-95
2023/12/03 01:30:54;;;;;;;4.33;3.93;;;;;;;-2.49;100.00;96069.66;7425682;19;20390;-96
2023/12/03 01:33:34;;;;;;;7.53;4.87;;;;;;;-4.30;100.00;95790.59;7419363;19;20383;31
2023/12/03 01:36:08;;;;;;;5.33;4.00;;;;;;;-2.32;100.00;96097.25;7415509;19;20453;-95
2023/12/03 01:38:53;;;;;;;6.03;4.40;;;;;;;-2.91;100.00;96015.00;7419903;19;20446;-94
2023/12/03 01:41:22;;;;;;;4.57;3.93;;;;;;;-3.66;100.00;95904.38;7425083;19;20905;-94
2023/12/03 01:43:51;;;;;;;5.37;4.87;;;;;;;-3.22;100.00;95975.00;7417600;19;20458;-95
2023/12/03 01:46:21;;;;;;;4.80;3.50;;;;;;;-3.21;100.00;95963.72;7425164;19;20381;-95
2023/12/03 01:51:26;;;;;;;5.70;5.27;;;;;;;-2.98;100.00;96019.44;7425364;19;20432;-96
2023/12/03 01:53:54;;;;;;;7.93;5.60;;;;;;;-2.75;100.00;96050.28;7422552;19;20392;-94
2023/12/03 01:56:24;;;;;;;6.40;5.57;;;;;;;-2.50;100.00;96091.22;7425113;19;20387;-94
2023/12/03 01:59:02;;;;;;;7.00;6.00;;;;;;;-3.01;100.00;96001.91;7430040;19;20370;-95
2023/12/03 02:01:35;;;;;;;6.90;5.20;;;;;;;-2.62;100.00;96069.06;7426562;19;20426;-95
2023/12/03 02:04:04;;;;;;;6.03;5.50;;;;;;;-3.14;100.00;95994.41;7430364;19;20403;-95
2023/12/03 02:06:43;;;;;;;6.27;5.67;;;;;;;-2.61;100.00;96070.63;7428696;19;20389;-96
2023/12/03 02:09:12;;;;;;;6.17;5.10;;;;;;;-3.28;100.00;95958.69;7430371;19;20383;-96
2023/12/03 02:11:40;;;;;;;5.70;5.20;;;;;;;-2.27;100.00;96112.81;7430076;19;20417;-95
2023/12/03 02:14:08;;;;;;;6.23;5.63;;;;;;;-2.18;100.00;96150.00;7430442;19;20417;-95
2023/12/03 02:16:36;;;;;;;6.90;5.37;;;;;;;-3.02;100.00;96013.19;7430569;19;20386;-96
2023/12/03 02:19:03;;;;;;;6.33;4.87;;;;;;;-2.95;100.00;96016.44;7431405;19;20363;-96
2023/12/03 02:21:31;;;;;;;7.87;6.43;;;;;;;-2.89;100.00;96030.19;7431809;19;20446;-96
2023/12/03 02:23:58;;;;;;;8.07;6.70;;;;;;;-3.34;100.00;95961.34;7432219;19;20370;-96
2023/12/03 02:26:26;;;;;;;8.40;5.70;;;;;;;-2.79;100.00;96045.81;7430673;19;20371;-96
2023/12/03 02:29:06;;;;;;;7.70;6.00;;;;;;;-2.28;100.00;96135.16;7423413;19;20402;31
2023/12/03 02:31:34;;;;;;;7.50;6.00;;;;;;;-3.02;100.00;96031.94;7422546;19;20445;-94
2023/12/03 02:46:05;;;;;;;6.47;5.20;;;;;;;-3.97;100.00;95911.34;7422978;19;20490;-94
2023/12/03 02:51:22;;;;;;;10.10;6.27;;;;;;;-3.39;100.00;95982.50;7428233;19;20449;-95
2023/12/03 02:53:49;;;;;;;7.90;6.60;;;;;;;-3.28;100.00;96002.28;7426004;19;20386;-94
2023/12/03 02:56:17;;;;;;;6.03;5.23;;;;;;;-2.88;100.00;96065.88;7427654;19;20378;-94
2023/12/03 03:01:30;;;;;;;7.47;6.13;;;;;;;-2.94;100.00;96079.63;7430505;19;20423;-94
2023/12/03 03:04:06;;;;;;;8.63;7.83;;;;;;;-2.70;100.00;96126.69;7426447;19;20456;-93
2023/12/03 03:06:33;;;;;;;9.30;6.93;;;;;;;-2.85;100.00;96083.41;7430679;19;20498;-95
2023/12/03 03:11:49;;;;;;;7.13;6.07;;;;;;;-3.44;100.00;95990.09;7402794;19;20451;-95
2023/12/03 03:14:16;;;;;;;9.20;6.57;;;;;;;-3.31;100.00;96010.44;7424328;19;20457;-95
2023/12/03 03:16:44;;;;;;;9.37;7.70;;;;;;;-3.53;100.00;95973.44;7423137;19;20435;-93
2023/12/03 03:24:59;;;;;;;10.27;6.60;;;;;;;-2.80;100.00;96098.97;7429060;19;20363;-96
2023/12/03 03:27:27;;;;;;;10.07;7.20;;;;;;;-2.93;100.00;96062.44;7427800;19;20391;-96
2023/12/03 03:33:08;;;;;;;8.40;6.37;;;;;;;-2.33;100.00;96154.78;7390429;19;20455;31
2023/12/03 03:38:38;;;;;;;9.50;6.53;;;;;;;-3.41;100.00;96002.47;7394706;19;20449;-96
2023/12/03 03:41:05;;;;;;;10.20;7.90;;;;;;;-2.88;100.00;96089.00;7428968;19;20436;-94
2023/12/03 03:46:13;;;;;;;9.53;7.13;;;;;;;-2.66;100.00;96125.25;7393661;19;20445;-94
2023/12/03 03:55:01;;;;;;;9.73;8.30;;;;;;;-2.31;100.00;96189.56;7395163;19;20481;-89
2023/12/03 03:57:40;;;;;;;14.90;8.93;;;;;;;-2.24;100.00;96194.59;7421092;19;20415;31
2023/12/03 04:00:11;;;;;;;9.93;8.10;;;;;;;-2.86;100.00;96102.38;7417730;19;20429;-95
2023/12/03 04:02:41;;;;;;;9.47;8.10;;;;;;;-2.86;100.00;96104.19;7427042;19;20395;-95
2023/12/03 04:08:11;;;;;;;7.77;7.07;;;;;;;-2.59;100.00;96143.09;7426256;19;20475;-94
2023/12/03 04:17:04;;;;;;;10.75;8.00;;;;;;;-2.30;100.00;96211.69;7402388;19;20432;31
2023/12/03 04:19:45;;;;;;;9.70;7.25;;;;;;;-2.13;100.00;96222.91;7383032;19;20488;31
2023/12/03 04:22:13;;;;;;;12.60;9.23;;;;;;;-3.07;100.00;96070.31;7425449;19;20481;-95
2023/12/03 04:24:40;;;;;;;12.67;9.07;;;;;;;-3.05;100.00;96080.34;7425846;19;20386;-96
2023/12/03 04:27:07;;;;;;;13.43;9.83;;;;;;;-3.02;100.00;96080.69;7426639;19;20366;-95
2023/12/03 04:29:35;;;;;;;10.73;9.10;;;;;;;-3.00;100.00;96090.75;7414726;19;20449;-91
2023/12/03 04:32:02;;;;;;;14.43;9.60;;;;;;;-2.87;100.00;96108.53;7430111;19;20428;-91
2023/12/03 04:34:30;;;;;;;11.20;9.23;;;;;;;-2.26;100.00;96194.81;7429966;19;20363;-93
2023/12/03 04:42:36;;;;;;;9.73;8.40;;;;;;;-3.68;100.00;95993.56;7420658;19;20467;-95
2023/12/03 04:45:04;;;;;;;11.57;8.83;;;;;;;-2.72;100.00;96155.13;7421527;19;20438;-95
2023/12/03 04:56:17;;;;;;;8.40;5.77;;;;;;;-2.61;100.00;96163.88;7397893;19;20443;-95
2023/12/03 05:08:24;;;;;;;10.95;9.10;;;;;;;-2.00;100.00;96234.78;7407645;19;20438;31
2023/12/03 05:10:52;;;;;;;11.33;8.70;;;;;;;-2.78;100.00;96120.06;7425461;19;20431;-96
2023/12/03 05:16:16;;;;;;;11.93;8.50;;;;;;;-3.08;100.00;96103.88;7376488;19;20477;-92
2023/12/03 05:27:58;;;;;;;11.37;8.60;;;;;;;-2.20;100.00;96252.25;7350182;19;20459;-92
2023/12/03 05:33:26;;;;;;;14.00;9.70;;;;;;;-2.18;100.00;96245.09;7418147;19;20465;-95
2023/12/03 05:38:46;;;;;;;10.43;6.93;;;;;;;-1.99;100.00;96264.63;7428280;19;20406;31
2023/12/03 05:41:13;;;;;;;14.10;9.80;;;;;;;-2.51;100.00;96207.03;7433732;19;20394;-96
2023/12/03 06:01:40;;;;;;;11.43;8.63;;;;;;;-2.75;100.00;96191.50;7379887;19;20462;-95
2023/12/03 06:10:30;;;;;;;12.43;8.90;;;;;;;-2.54;100.00;96226.22;7364997;19;20481;-92
2023/12/03 06:13:11;;;;;;;13.67;7.67;;;;;;;-2.14;100.00;96293.31;7372574;19;20434;31
2023/12/03 06:18:48;;;;;;;11.20;8.53;;;;;;;-3.22;100.00;96126.38;7368066;19;20457;-95
2023/12/03 06:21:16;;;;;;;12.67;9.10;;;;;;;-2.53;100.00;96235.50;7411069;19;20479;-95
2023/12/03 06:39:47;;;;;;;10.40;7.27;;;;;;;-2.06;100.00;96310.19;7391970;19;20450;31
2023/12/03 07:03:08;;;;;;;12.97;8.57;;;;;;;-2.92;100.00;96200.03;7414906;19;20457;-96
2023/12/03 07:05:46;;;;;;;9.20;8.30;;;;;;;-1.99;100.00;96338.41;7423881;19;20388;31
2023/12/03 07:17:21;;;;;;;12.13;9.20;;;;;;;-3.57;100.00;96110.78;7411013;19;20486;-95
2023/12/03 07:31:35;;;;;;;14.47;13.07;;;;;;;-2.39;100.00;96293.41;7383067;19;20493;-91
2023/12/03 07:34:17;;;;;;;14.73;8.50;;;;;;;-2.89;100.00;96231.19;7386931;19;20569;-92
2023/12/03 07:36:44;;;;;;;27.30;17.33;;;;;;;-2.61;100.00;96274.31;7382952;19;21328;-89
2023/12/03 07:45:10;;;;;;;31.30;21.37;;;;;;;-2.76;100.00;96277.25;7348101;19;20450;-90
2023/12/03 08:25:30;;;;;;;10.10;9.10;;;;;;;-2.32;100.00;96380.69;7349743;19;20427;-94
2023/12/03 08:28:02;;;;;;;9.93;8.80;;;;;;;-2.82;100.00;96292.75;7431864;19;20358;-93
2023/12/03 08:30:31;;;;;;;12.07;9.57;;;;;;;-2.83;100.00;96291.19;7431501;19;20347;-92
2023/12/03 08:32:58;;;;;;;17.43;10.93;;;;;;;-3.83;100.00;96147.72;7431647;19;20354;-94
2023/12/03 09:07:40;;;;;;;18.10;11.83;;;;;;;-2.72;100.00;96296.34;7363356;19;20452;-91
2023/12/03 09:16:25;;;;;;;18.30;12.80;;;;;;;-2.74;100.00;96280.38;7375518;19;20448;-95
2023/12/03 09:18:58;;;;;;;14.90;11.33;;;;;;;-2.81;100.00;96281.47;7436453;19;20387;-94
2023/12/03 09:31:15;;;;;;;21.90;12.73;;;;;;;-1.53;100.00;96467.19;7392617;19;20487;31
2023/12/03 09:36:52;;;;;;;12.87;9.83;;;;;;;-2.21;100.00;96349.13;7369446;19;20743;-91
2023/12/03 09:39:28;;;;;;;15.40;11.23;;;;;;;-1.51;100.00;96460.03;7333955;19;20434;31
2023/12/03 09:42:09;;;;;;;12.13;9.00;;;;;;;-1.49;100.00;96468.31;7377134;19;20488;31
2023/12/03 09:54:01;;;;;;;17.70;13.50;;;;;;;-1.90;100.00;96409.09;7357796;19;20457;-92
2023/12/03 09:56:35;;;;;;;24.00;15.10;;;;;;;-1.24;100.00;96470.75;7346562;19;20437;31
2023/12/03 10:05:22;;;;;;;16.97;12.67;;;;;;;-0.88;100.00;96479.31;7344578;19;21326;31
2023/12/03 10:08:04;;;;;;;23.15;13.30;;;;;;;-0.72;100.00;96473.50;7420455;19;20457;31
2023/12/03 10:10:36;;;;;;;14.07;10.40;;;;;;;-2.86;100.00;96189.69;7385588;19;20467;-90
2023/12/03 10:18:58;;;;;;;11.70;7.97;;;;;;;-3.03;100.00;96174.09;7409361;19;20382;-96
2023/12/03 10:27:47;;;;;;;16.27;10.37;;;;;;;-1.41;100.00;96399.53;7397381;19;20449;-91
2023/12/03 10:30:15;;;;;;;13.60;9.47;;;;;;;-1.37;100.00;96395.50;7416217;19;20383;-92
2023/12/03 10:32:45;;;;;;;14.70;10.20;;;;;;;-1.06;100.00;96402.16;7405003;19;20379;-95
2023/12/03 10:35:12;;;;;;;19.63;13.47;;;;;;;-0.78;100.00;96422.88;7403641;19;20401;-94
2023/12/03 10:37:40;;;;;;;18.00;12.90;;;;;;;-0.17;100.00;96475.78;7405897;19;20460;-94
2023/12/03 10:40:16;;;;;;;15.93;12.87;;;;;;;-0.54;100.00;96439.16;7408545;19;20449;-93
2023/12/03 10:42:49;;;;;;;18.27;13.33;;;;;;;-1.30;100.00;96337.75;7408624;19;20415;-92
2023/12/03 10:45:38;;;;;;;9.97;8.40;;;;;;;-0.62;100.00;96429.94;7407761;19;20365;-93
2023/12/03 10:48:13;;;;;;;22.47;14.93;;;;;;;-0.48;100.00;96471.75;7408178;19;20392;-94
2023/12/03 10:50:45;;;;;;;16.10;11.47;;;;;;;-0.91;100.00;96411.00;7406704;19;20393;-94
2023/12/03 10:53:15;;;;;;;20.80;13.17;;;;;;;-1.95;100.00;96259.81;7405489;19;20363;-92
2023/12/03 10:55:47;;;;;;;14.83;10.90;;;;;;;-1.68;100.00;96327.88;7417854;19;20378;-94
2023/12/03 10:58:20;;;;;;;21.10;14.30;;;;;;;-0.92;100.00;96427.47;7423692;19;20387;-95
2023/12/03 11:01:01;;;;;;;17.50;12.23;;;;;;;-1.82;100.00;96329.06;7423474;19;20549;-94
2023/12/03 11:04:14;;;;;;;20.60;14.13;;;;;;;-1.50;100.00;96376.69;7423867;19;20387;-94
2023/12/03 11:06:46;;;;;;;23.13;13.57;;;;;;;-1.20;100.00;96389.47;7423563;19;20435;-94
2023/12/03 11:09:15;;;;;;;17.17;13.47;;;;;;;-1.65;100.00;96324.84;7423031;19;20374;-94
2023/12/03 11:11:53;;;;;;;20.23;11.60;;;;;;;-1.01;100.00;96413.34;7421954;19;20407;-94
2023/12/03 11:14:23;;;;;;;15.80;12.63;;;;;;;-1.31;100.00;96356.78;7421889;19;20371;-93
2023/12/03 11:17:22;;;;;;;18.30;14.07;;;;;;;-0.38;100.00;96463.47;7422550;19;20437;-94
2023/12/03 11:19:56;;;;;;;16.40;11.20;;;;;;;-0.81;100.00;96422.56;7421922;19;20404;-93
2023/12/03 11:22:24;;;;;;;17.80;13.43;;;;;;;-0.52;100.00;96475.78;7405048;19;20432;-93
2023/12/03 11:25:23;;;;;;;16.97;11.50;;;;;;;-1.34;100.00;96335.84;7403319;19;20391;-94
2023/12/03 11:27:54;;;;;;;21.47;12.97;;;;;;;-0.63;100.00;96463.69;7404112;19;20407;-92
2023/12/03 11:30:42;;;;;;;16.37;12.73;;;;;;;-0.64;100.00;96475.78;7401743;19;20382;-93
2023/12/03 11:33:13;;;;;;;17.50;11.70;;;;;;;-1.69;100.00;96323.72;7403455;19;20400;-93
2023/12/03 11:35:58;;;;;;;22.57;14.13;;;;;;;-0.57;100.00;96484.19;7401338;19;20380;-95
2023/12/03 11:38:34;;;;;;;15.77;11.30;;;;;;;-0.48;100.00;96478.69;7403798;19;20435;-94
2023/12/03 11:41:10;;;;;;;18.33;11.13;;;;;;;-0.53;100.00;96484.53;7403979;19;20374;-94
2023/12/03 11:43:53;;;;;;;16.27;12.40;;;;;;;-0.79;100.00;96430.84;7404534;19;20438;-94
2023/12/03 11:46:31;;;;;;;20.37;15.43;;;;;;;-0.50;100.00;96486.66;7403627;19;20404;-94
2023/12/03 11:49:04;;;;;;;14.57;11.17;;;;;;;-1.11;100.00;96405.38;7405189;19;20388;-94
2023/12/03 11:52:05;;;;;;;15.60;10.33;;;;;;;-0.62;100.00;96489.22;7403450;19;20386;-94
2023/12/03 11:55:04;;;;;;;20.83;11.97;;;;;;;-0.59;100.00;96485.41;7402647;19;20386;-95
2023/12/03 11:57:37;;;;;;;16.33;11.50;;;;;;;-0.77;100.00;96462.31;7404090;19;20422;-94
2023/12/03 12:00:19;;;;;;;16.77;11.50;;;;;;;-1.18;100.00;96399.56;7400223;19;20382;-88
2023/12/03 12:02:48;;;;;;;11.93;7.93;;;;;;;-1.38;100.00;96350.94;7399456;19;20865;-88
2023/12/03 12:05:21;;;;;;;18.90;12.50;;;;;;;-0.69;100.00;96449.13;7399338;19;20466;-89
2023/12/03 12:08:07;;;;;;;15.10;11.30;;;;;;;-0.45;100.00;96480.81;7398927;19;20881;-87
2023/12/03 12:10:38;;;;;;;17.20;12.77;;;;;;;-0.73;100.00;96429.94;7399206;19;20406;-88
2023/12/03 12:13:08;;;;;;;16.40;11.90;;;;;;;-1.19;100.00;96334.41;7399276;19;20384;-87
2023/12/03 12:15:36;;;;;;;16.43;11.77;;;;;;;-1.11;100.00;96356.44;7398087;19;20399;-88
2023/12/03 12:18:07;;;;;;;16.13;11.30;;;;;;;-0.76;100.00;96409.78;7398636;19;20381;-88
2023/12/03 12:20:37;;;;;;;16.33;12.17;;;;;;;-1.09;100.00;96356.25;7398977;19;20404;-88
2023/12/03 12:23:17;;;;;;;18.07;11.63;;;;;;;-1.63;100.00;96298.94;7398476;19;20421;-88
2023/12/03 12:25:47;;;;;;;17.30;12.13;;;;;;;-1.34;100.00;96341.78;7398628;19;20375;-88
2023/12/03 12:28:15;;;;;;;13.00;9.37;;;;;;;-0.65;100.00;96439.94;7397264;19;20458;-89
2023/12/03 12:30:44;;;;;;;20.00;10.10;;;;;;;-0.85;100.00;96393.88;7397784;19;20746;-88
2023/12/03 12:33:11;;;;;;;18.13;12.30;;;;;;;-0.81;100.00;96391.66;7398131;19;20851;-88
2023/12/03 12:35:42;;;;;;;20.13;12.17;;;;;;;-0.87;100.00;96349.53;7395692;19;20396;-88
2023/12/03 12:38:10;;;;;;;14.23;10.80;;;;;;;-0.75;100.00;96352.09;7397127;19;20371;-88
2023/12/03 12:40:42;;;;;;;19.20;12.90;;;;;;;-0.30;100.00;96414.16;7395837;19;20408;-87
2023/12/03 12:43:13;;;;;;;16.53;12.00;;;;;;;0.01;100.00;96456.81;7398222;19;20387;-88
2023/12/03 12:45:42;;;;;;;15.00;11.53;;;;;;;-0.75;100.00;96372.72;7397319;19;20394;-89
2023/12/03 12:48:27;;;;;;;19.37;12.10;;;;;;;-0.52;100.00;96380.44;7397586;19;20886;-89
2023/12/03 12:51:02;;;;;;;19.40;12.60;;;;;;;-0.76;100.00;96347.94;7396545;19;20419;-88
2023/12/03 12:53:56;;;;;;;15.40;10.83;;;;;;;-0.55;100.00;96391.19;7396307;19;20366;-89
2023/12/03 12:56:32;;;;;;;25.23;17.80;;;;;;;-0.39;100.00;96398.22;7396324;19;20387;-89
2023/12/03 12:59:04;;;;;;;27.03;19.00;;;;;;;-0.73;100.00;96347.50;7398009;19;20395;-88
2023/12/03 13:01:34;;;;;;;18.83;11.80;;;;;;;-0.59;100.00;96369.44;7396740;19;20490;-88
2023/12/03 13:04:05;;;;;;;22.70;13.60;;;;;;;-0.43;100.00;96366.19;7398865;19;20375;-88
2023/12/03 13:06:33;;;;;;;19.90;15.40;;;;;;;-0.67;100.00;96316.47;7399364;19;20381;-87
2023/12/03 13:09:02;;;;;;;24.00;16.13;;;;;;;0.10;100.00;96429.66;7402758;19;20382;-87
2023/12/03 13:11:29;;;;;;;18.90;13.40;;;;;;;-0.45;100.00;96350.13;7402260;19;20387;-87
2023/12/03 13:13:57;;;;;;;22.27;16.87;;;;;;;-0.32;100.00;96367.94;7398783;19;20448;-88
2023/12/03 13:16:24;;;;;;;18.60;15.50;;;;;;;-0.27;100.00;96399.00;7396824;19;20375;-87
2023/12/03 13:18:51;;;;;;;19.63;13.90;;;;;;;-0.41;100.00;96371.91;7397514;19;20376;-87
2023/12/03 13:21:19;;;;;;;20.50;13.10;;;;;;;-0.27;100.00;96391.25;7394739;19;20471;-85
2023/12/03 13:23:46;;;;;;;20.93;14.50;;;;;;;-0.15;100.00;96417.03;7395685;19;20680;-84
2023/12/03 13:26:13;;;;;;;17.53;13.00;;;;;;;-0.04;100.00;96429.13;7395644;19;20421;-84
2023/12/03 13:28:40;;;;;;;17.20;12.70;;;;;;;-0.42;100.00;96367.75;7394137;19;20426;-88
2023/12/03 13:31:08;;;;;;;15.03;11.20;;;;;;;-0.25;100.00;96401.34;7394589;19;20447;-87
2023/12/03 13:33:35;;;;;;;16.73;12.50;;;;;;;-0.62;100.00;96333.81;7395667;19;20374;-86
2023/12/03 13:36:03;;;;;;;18.90;13.03;;;;;;;-0.46;100.00;96352.94;7395552;19;20367;-87
2023/12/03 13:38:31;;;;;;;22.17;15.17;;;;;;;-0.30;100.00;96378.06;7395454;19;20385;-88
2023/12/03 13:40:58;;;;;;;20.93;16.13;;;;;;;-0.07;100.00;96414.09;7394208;19;20927;-87
2023/12/03 13:43:25;;;;;;;17.40;15.37;;;;;;;-0.39;100.00;96338.16;7395310;19;20397;-87
2023/12/03 13:45:52;;;;;;;16.13;12.00;;;;;;;0.10;100.00;96439.19;7395051;19;20369;-87
2023/12/03 13:48:20;;;;;;;16.73;13.13;;;;;;;-0.40;100.00;96376.03;7397501;19;20719;-88
2023/12/03 13:50:47;;;;;;;14.17;10.63;;;;;;;-0.19;100.00;96413.31;7394034;19;20399;-88
2023/12/03 13:53:14;;;;;;;19.60;12.93;;;;;;;-0.29;100.00;96387.34;7398439;19;20378;-88
2023/12/03 13:55:41;;;;;;;18.00;11.90;;;;;;;-1.07;100.00;96262.31;7400649;19;20398;-87
2023/12/03 13:58:09;;;;;;;18.63;13.10;;;;;;;-0.40;100.00;96383.78;7402217;19;20382;-87
2023/12/03 14:00:36;;;;;;;15.90;12.93;;;;;;;-0.35;100.00;96378.72;7401415;19;20950;-87
2023/12/03 14:03:04;;;;;;;16.17;11.30;;;;;;;-0.18;100.00;96409.72;7402806;19;20397;-87
2023/12/03 14:05:32;;;;;;;34.17;22.10;;;;;;;-0.41;100.00;96387.38;7401966;19;20386;-86
2023/12/03 14:07:59;;;;;;;95.43;54.57;;;;;;;0.08;100.00;96447.13;7402035;19;20412;-88
2023/12/03 14:10:29;;;;;;;25.30;18.30;;;;;;;-0.44;100.00;96390.41;7401830;19;20374;-87
2023/12/03 14:12:57;;;;;;;28.03;18.63;;;;;;;-0.80;100.00;96341.69;7401225;19;20951;-87
2023/12/03 14:15:24;;;;;;;21.20;14.23;;;;;;;-0.38;100.00;96397.22;7400462;19;20394;-87
2023/12/03 14:17:51;;;;;;;21.93;14.07;;;;;;;-0.51;100.00;96379.41;7401170;19;20421;-87
2023/12/03 14:20:19;;;;;;;19.77;14.07;;;;;;;-0.60;100.00;96353.19;7401095;19;20365;-87
2023/12/03 14:22:46;;;;;;;19.70;14.57;;;;;;;-0.34;100.00;96393.16;7400952;19;20391;-87
2023/12/03 14:25:13;;;;;;;16.90;13.03;;;;;;;-0.61;100.00;96353.41;7400757;19;20391;-87
2023/12/03 14:27:43;;;;;;;14.27;11.43;;;;;;;-0.83;100.00;96299.13;7399835;19;20411;-87
2023/12/03 14:30:11;;;;;;;17.47;11.60;;;;;;;-0.86;100.00;96330.47;7400836;19;20423;-87
2023/12/03 14:32:38;;;;;;;18.97;12.30;;;;;;;-0.48;100.00;96360.91;7400683;19;20896;-87
2023/12/03 14:35:08;;;;;;;15.37;11.93;;;;;;;-0.37;100.00;96379.97;7400038;19;20402;-87
2023/12/03 14:37:35;;;;;;;17.60;11.67;;;;;;;-0.06;100.00;96425.19;7401510;19;20402;-87
2023/12/03 14:40:03;;;;;;;18.33;13.43;;;;;;;-0.51;100.00;96394.88;7400888;19;20380;-87
2023/12/03 14:42:31;;;;;;;16.30;11.40;;;;;;;-0.83;100.00;96357.59;7398618;19;20411;-87
2023/12/03 14:44:58;;;;;;;16.53;11.97;;;;;;;-0.75;100.00;96390.75;7400391;19;20395;-87
2023/12/03 14:47:25;;;;;;;15.63;12.33;;;;;;;-1.21;100.00;96328.69;7400671;19;20396;-87
2023/12/03 14:49:55;;;;;;;14.70;10.77;;;;;;;-1.64;100.00;96269.03;7400418;19;20961;-86
2023/12/03 14:52:22;;;;;;;18.10;13.80;;;;;;;-0.76;100.00;96404.63;7399091;19;20740;-86
2023/12/03 14:54:49;;;;;;;20.03;14.90;;;;;;;-0.57;100.00;96437.81;7400388;19;20392;-87
2023/12/03 14:57:17;;;;;;;19.13;12.10;;;;;;;-0.85;100.00;96353.44;7407191;19;20413;-93
2023/12/03 14:59:44;;;;;;;21.43;16.30;;;;;;;-0.60;100.00;96360.94;7404006;19;20412;-92
2023/12/03 15:02:12;;;;;;;19.47;15.47;;;;;;;-0.32;100.00;96432.41;7402803;19;20411;-91
2023/12/03 15:04:40;;;;;;;20.33;14.30;;;;;;;-0.88;100.00;96359.03;7403474;19;20375;-95
2023/12/03 15:07:08;;;;;;;21.13;16.63;;;;;;;-0.69;100.00;96416.41;7404190;19;20445;-95
2023/12/03 15:09:36;;;;;;;22.83;15.20;;;;;;;-0.31;100.00;96498.44;7404519;19;20406;-95
2023/12/03 15:12:05;;;;;;;21.13;14.07;;;;;;;-0.75;100.00;96476.53;7402856;19;20398;-94
2023/12/03 15:14:34;;;;;;;25.13;16.63;;;;;;;-0.97;100.00;96466.00;7404529;19;20379;-94
2023/12/03 15:17:01;;;;;;;20.40;15.00;;;;;;;-1.48;100.00;96413.28;7402198;19;20370;-95
2023/12/03 15:19:30;;;;;;;18.67;13.63;;;;;;;-1.20;100.00;96456.41;7412362;19;20377;-94
2023/12/03 15:21:58;;;;;;;17.27;13.50;;;;;;;-1.43;100.00;96435.00;7404208;19;20897;-94
2023/12/03 15:24:29;;;;;;;16.70;12.13;;;;;;;-1.09;100.00;96469.56;7405184;19;20382;-94
2023/12/03 15:27:10;;;;;;;19.73;13.10;;;;;;;-1.89;100.00;96343.81;7401128;19;20407;-88
2023/12/03 15:29:37;;;;;;;15.53;12.10;;;;;;;-2.22;100.00;96314.16;7399520;19;20391;-88
2023/12/03 15:32:05;;;;;;;20.87;14.07;;;;;;;-1.49;100.00;96442.59;7397161;19;20417;-88
2023/12/03 15:34:32;;;;;;;14.13;11.00;;;;;;;-2.22;100.00;96341.66;7399279;19;20380;-87
2023/12/03 15:37:00;;;;;;;17.00;13.00;;;;;;;-1.99;100.00;96397.53;7397379;19;20367;-87
2023/12/03 15:39:28;;;;;;;22.10;15.00;;;;;;;-2.68;100.00;96358.38;7399261;19;20412;-87
2023/12/03 15:41:55;;;;;;;18.87;12.70;;;;;;;-2.78;100.00;96343.44;7399753;19;20394;-87
2023/12/03 15:44:25;;;;;;;13.37;11.00;;;;;;;-2.55;100.00;96398.56;7399431;19;20693;-88
2023/12/03 15:46:52;;;;;;;18.77;12.50;;;;;;;-3.29;100.00;96297.53;7399486;19;20376;-88
2023/12/03 15:49:20;;;;;;;19.53;14.10;;;;;;;-2.86;100.00;96389.16;7399107;19;20370;-88
2023/12/03 15:51:47;;;;;;;26.60;13.60;;;;;;;-2.69;100.00;96383.28;7398503;19;20413;-87
2023/12/03 15:54:16;;;;;;;20.50;13.43;;;;;;;-3.26;100.00;96335.59;7399278;19;20376;-88
2023/12/03 15:56:44;;;;;;;23.83;16.17;;;;;;;-2.80;100.00;96399.38;7397791;19;20390;-88
2023/12/03 15:59:12;;;;;;;30.17;19.13;;;;;;;-2.79;100.00;96395.03;7399702;19;20395;-90
2023/12/03 16:01:39;;;;;;;28.90;20.83;;;;;;;-2.88;100.00;96355.19;7398450;19;20430;-89
2023/12/03 16:04:07;;;;;;;32.13;20.07;;;;;;;-2.74;100.00;96377.97;7398129;19;20381;-89
2023/12/03 16:06:34;;;;;;;27.40;21.27;;;;;;;-2.98;100.00;96337.72;7397970;19;20828;-87
2023/12/03 16:09:02;;;;;;;35.27;23.40;;;;;;;-2.46;100.00;96418.59;7399415;19;20390;-87
2023/12/03 16:11:29;;;;;;;36.83;23.20;;;;;;;-2.24;100.00;96441.31;7398696;19;20418;-91
2023/12/03 16:13:57;;;;;;;43.83;26.57;;;;;;;-2.00;100.00;96468.75;7403623;19;20375;-95
2023/12/03 16:16:24;;;;;;;32.70;22.20;;;;;;;-1.97;100.00;96500.94;7399541;19;20378;-94
2023/12/03 16:18:52;;;;;;;44.43;31.50;;;;;;;-2.61;100.00;96401.94;7403168;19;20385;-92
2023/12/03 16:21:20;;;;;;;33.70;25.37;;;;;;;-2.16;100.00;96466.75;7402830;19;20405;-93
2023/12/03 16:23:47;;;;;;;26.33;20.97;;;;;;;-2.06;100.00;96480.66;7402565;19;20393;-93
2023/12/03 16:26:15;;;;;;;28.60;19.90;;;;;;;-2.18;100.00;96477.22;7402615;19;20392;-92
2023/12/03 16:28:42;;;;;;;22.70;18.53;;;;;;;-2.16;100.00;96467.53;7402064;19;20487;-92
2023/12/03 16:31:09;;;;;;;26.80;18.70;;;;;;;-2.25;100.00;96465.44;7401634;19;20766;-93
2023/12/03 16:33:38;;;;;;;22.93;17.20;;;;;;;-2.28;100.00;96442.75;7402432;19;20919;-93
2023/12/03 16:36:05;;;;;;;29.37;19.60;;;;;;;-2.51;100.00;96397.13;7401612;19;20359;-93
2023/12/03 16:38:32;;;;;;;31.13;19.37;;;;;;;-2.57;100.00;96391.06;7402646;19;20381;-93
2023/12/03 16:41:01;;;;;;;23.03;18.80;;;;;;;-2.93;100.00;96324.25;7400559;19;20406;-93
2023/12/03 16:43:34;;;;;;;27.20;17.30;;;;;;;-1.95;100.00;96479.16;7402498;19;20754;-93
2023/12/03 16:46:02;;;;;;;31.10;19.00;;;;;;;-3.04;100.00;96318.81;7401065;19;20494;-93
2023/12/03 16:48:30;;;;;;;21.73;17.50;;;;;;;-2.01;100.00;96471.53;7400262;19;20454;-92
2023/12/03 16:50:57;;;;;;;23.10;14.50;;;;;;;-2.38;100.00;96377.22;7399831;19;20443;-93
2023/12/03 16:53:25;;;;;;;23.87;15.27;;;;;;;-2.14;100.00;96388.41;7399801;19;20387;-93